Time;durP1;ratioP1;P1;durP2;ratioP2;P2;SDS_P1;SDS_P2;PMS_P1;PMS_P2;Temp;Humidity;BMP_temperature;BMP_pressure;BME280_temperature;BME280_humidity;BME280_pressure;Samples;Min_cycle;Max_cycle;Signal;HPM_P1;HPM_P2
2022/11/06 00:00:53;;;;;;;12.53;11.23;;;6.40;95.10;;;;;;5092817;28;20738;-47
2022/11/06 00:03:19;;;;;;;13.23;11.23;;;6.40;95.10;;;;;;5098971;28;20415;-47
2022/11/06 00:08:35;;;;;;;10.63;9.53;;;6.40;95.10;;;;;;5099691;28;20172;-47
2022/11/06 00:11:07;;;;;;;12.00;10.70;;;6.40;95.10;;;;;;5100110;28;20810;-44
2022/11/06 00:13:32;;;;;;;12.80;10.47;;;6.40;95.20;;;;;;5098494;28;20877;-45
2022/11/06 00:16:02;;;;;;;10.60;9.53;;;6.40;95.10;;;;;;5098066;28;20746;-44
2022/11/06 00:18:27;;;;;;;12.33;10.70;;;6.40;95.20;;;;;;5098888;28;20590;-46
2022/11/06 00:20:53;;;;;;;12.30;9.83;;;6.40;95.20;;;;;;5098632;28;20462;-46
2022/11/06 00:23:19;;;;;;;11.17;10.07;;;6.50;95.20;;;;;;5098916;28;20259;-45
2022/11/06 00:25:44;;;;;;;11.43;10.13;;;6.40;95.10;;;;;;5099362;28;20218;-47
2022/11/06 00:28:10;;;;;;;12.17;9.90;;;6.50;95.20;;;;;;5099326;28;20257;-46
2022/11/06 00:30:37;;;;;;;11.53;9.33;;;6.40;95.20;;;;;;5099809;28;20659;-45
2022/11/06 00:33:03;;;;;;;11.70;9.73;;;6.40;95.20;;;;;;5099581;28;20516;-46
2022/11/06 00:35:29;;;;;;;11.60;10.33;;;6.40;95.20;;;;;;5098418;28;20488;-45
2022/11/06 00:37:55;;;;;;;11.77;10.53;;;6.40;95.20;;;;;;5097148;28;20188;-47
2022/11/06 00:40:20;;;;;;;11.00;9.93;;;6.40;95.20;;;;;;5098151;28;20158;-44
2022/11/06 00:42:46;;;;;;;11.50;10.37;;;6.40;95.20;;;;;;5098977;28;20438;-44
2022/11/06 00:45:11;;;;;;;11.67;10.47;;;6.40;95.20;;;;;;5097451;28;20227;-45
2022/11/06 00:47:37;;;;;;;11.50;10.30;;;6.30;95.20;;;;;;5097208;28;20212;-45
2022/11/06 00:50:03;;;;;;;10.73;9.77;;;6.30;95.20;;;;;;5097257;28;20259;-44
2022/11/06 00:52:29;;;;;;;10.80;9.67;;;6.30;95.20;;;;;;5097424;28;20208;-45
2022/11/06 00:54:54;;;;;;;10.73;9.70;;;6.30;95.20;;;;;;5097600;28;20422;-45
2022/11/06 00:57:20;;;;;;;10.67;9.57;;;6.30;95.20;;;;;;5106034;28;20758;-45
2022/11/06 00:59:46;;;;;;;10.67;9.50;;;6.30;95.10;;;;;;5118048;28;20252;-53
2022/11/06 01:02:11;;;;;;;11.43;10.20;;;6.20;95.00;;;;;;5117417;28;20167;-46
2022/11/06 01:04:38;;;;;;;13.10;9.87;;;6.20;95.00;;;;;;5117760;28;20258;-44
2022/11/06 01:07:04;;;;;;;11.00;9.90;;;6.20;95.00;;;;;;5117047;28;20631;-46
2022/11/06 01:09:30;;;;;;;11.53;10.33;;;6.20;95.00;;;;;;5117509;28;20176;-46
2022/11/06 01:11:57;;;;;;;10.30;9.33;;;6.20;95.00;;;;;;5118201;28;20184;-45
2022/11/06 01:14:24;;;;;;;10.40;9.40;;;6.20;95.00;;;;;;5118281;28;20460;-45
2022/11/06 01:16:50;;;;;;;10.50;9.20;;;6.10;94.90;;;;;;5117818;28;20447;-45
2022/11/06 01:19:18;;;;;;;12.40;10.23;;;6.10;94.90;;;;;;5117844;28;20513;-46
2022/11/06 01:21:45;;;;;;;12.20;10.90;;;6.10;94.90;;;;;;5117784;28;20429;-45
2022/11/06 01:24:19;;;;;;;11.47;10.37;;;6.10;94.90;;;;;;5116358;28;21048;-45
2022/11/06 01:26:44;;;;;;;14.60;9.70;;;6.00;94.90;;;;;;5116589;28;20426;-44
2022/11/06 01:29:12;;;;;;;11.07;9.83;;;6.00;94.90;;;;;;5117514;28;20432;-44
2022/11/06 01:31:39;;;;;;;11.40;10.20;;;6.00;94.90;;;;;;5117006;28;20220;-45
2022/11/06 01:34:04;;;;;;;10.43;9.33;;;6.00;94.90;;;;;;5118454;28;20494;-45
2022/11/06 01:36:30;;;;;;;13.10;10.93;;;6.00;94.90;;;;;;5118658;28;20517;-43
2022/11/06 01:38:59;;;;;;;10.90;9.83;;;6.00;94.80;;;;;;5118941;28;20187;-47
2022/11/06 01:41:37;;;;;;;11.40;10.20;;;5.90;94.70;;;;;;5118650;28;20490;-44
2022/11/06 01:44:05;;;;;;;9.90;8.87;;;5.90;94.70;;;;;;5118637;28;20750;-47
2022/11/06 01:46:34;;;;;;;10.20;9.20;;;5.90;94.70;;;;;;5118766;28;20418;-44
2022/11/06 01:49:14;;;;;;;10.30;9.30;;;5.90;94.60;;;;;;5099137;28;20900;-45
2022/11/06 01:51:54;;;;;;;9.57;8.53;;;5.80;94.50;;;;;;5117374;28;20417;-44
2022/11/06 01:54:21;;;;;;;10.20;8.80;;;5.80;94.50;;;;;;5098530;28;20441;-44
2022/11/06 01:56:49;;;;;;;9.70;8.70;;;5.80;94.50;;;;;;5116393;28;20484;-44
2022/11/06 01:59:17;;;;;;;10.33;9.33;;;5.70;94.40;;;;;;5117166;28;20850;-45
2022/11/06 02:01:43;;;;;;;10.37;9.33;;;5.70;94.40;;;;;;5098235;28;20501;-44
2022/11/06 02:04:16;;;;;;;10.53;9.53;;;5.70;94.30;;;;;;5116830;28;20568;-43
2022/11/06 02:06:42;;;;;;;10.77;9.00;;;5.70;94.30;;;;;;5118205;28;20467;-44
2022/11/06 02:09:11;;;;;;;9.47;8.57;;;5.70;94.30;;;;;;5117660;28;20990;-44
2022/11/06 02:12:00;;;;;;;9.27;8.37;;;5.60;94.20;;;;;;5116656;28;20417;-43
2022/11/06 02:14:54;;;;;;;9.47;8.57;;;5.60;94.20;;;;;;5069605;28;20438;-46
2022/11/06 02:17:28;;;;;;;10.63;9.53;;;5.60;94.20;;;;;;5117723;28;20824;-44
2022/11/06 02:20:28;;;;;;;9.90;8.10;;;5.50;94.10;;;;;;5118090;28;20409;-46
2022/11/06 02:23:09;;;;;;;10.97;9.23;;;5.50;94.20;;;;;;5100734;28;20414;-45
2022/11/06 02:26:08;;;;;;;8.97;8.13;;;5.50;94.20;;;;;;5100219;28;20424;-45
2022/11/06 02:28:45;;;;;;;8.97;8.07;;;5.50;94.20;;;;;;5117829;28;20448;-46
2022/11/06 02:31:13;;;;;;;9.57;8.37;;;5.50;94.20;;;;;;5098664;28;20418;-45
2022/11/06 02:34:00;;;;;;;10.83;9.73;;;5.50;94.20;;;;;;5099375;28;20521;-49
2022/11/06 02:36:33;;;;;;;10.53;9.40;;;5.50;94.20;;;;;;5099851;28;20865;-48
2022/11/06 02:39:01;;;;;;;11.70;10.33;;;5.50;94.20;;;;;;5099167;28;20423;-45
2022/11/06 02:42:20;;;;;;;10.20;9.10;;;5.40;94.10;;;;;;5099964;28;20421;-45
2022/11/06 02:44:48;;;;;;;9.40;8.50;;;5.40;94.20;;;;;;5117017;28;20494;-45
2022/11/06 02:47:14;;;;;;;10.47;9.37;;;5.40;94.20;;;;;;5098412;28;20417;-47
2022/11/06 02:49:53;;;;;;;9.80;8.87;;;5.40;94.20;;;;;;5099351;28;20421;-45
2022/11/06 02:52:29;;;;;;;11.70;9.00;;;5.40;94.30;;;;;;5098433;28;20425;-45
2022/11/06 02:55:06;;;;;;;11.33;10.10;;;5.40;94.30;;;;;;5081682;28;20437;-44
2022/11/06 02:57:35;;;;;;;11.70;9.60;;;5.40;94.40;;;;;;5116994;28;20472;-46
2022/11/06 03:00:10;;;;;;;10.40;8.97;;;5.40;94.50;;;;;;5099108;28;20432;-44
2022/11/06 03:02:40;;;;;;;10.00;9.10;;;5.40;94.50;;;;;;5099741;28;20432;-46
2022/11/06 03:05:11;;;;;;;9.40;8.03;;;5.40;94.50;;;;;;5117332;28;20536;-44
2022/11/06 03:07:58;;;;;;;10.50;9.47;;;5.40;94.50;;;;;;5099135;28;20776;-44
2022/11/06 03:10:28;;;;;;;9.13;8.23;;;5.40;94.50;;;;;;5117601;28;20506;-45
2022/11/06 03:13:14;;;;;;;10.50;8.97;;;5.40;94.50;;;;;;5117450;28;20712;-46
2022/11/06 03:16:16;;;;;;;9.37;8.40;;;5.40;94.60;;;;;;5101979;28;20414;-44
2022/11/06 03:19:05;;;;;;;9.57;8.67;;;5.40;94.60;;;;;;5099354;28;20421;-46
2022/11/06 03:22:01;;;;;;;8.77;7.97;;;5.40;94.60;;;;;;5121668;28;20501;-45
2022/11/06 03:24:44;;;;;;;10.70;8.37;;;5.40;94.60;;;;;;5121201;28;20461;-46
2022/11/06 03:27:23;;;;;;;10.60;7.50;;;5.40;94.60;;;;;;5121536;28;20410;-47
2022/11/06 03:30:03;;;;;;;8.53;7.60;;;5.40;94.70;;;;;;5103162;28;20402;-44
2022/11/06 03:32:50;;;;;;;10.10;8.40;;;5.40;94.70;;;;;;5102877;28;20504;-45
2022/11/06 03:35:23;;;;;;;9.20;8.00;;;5.30;94.60;;;;;;5121296;28;20493;-44
2022/11/06 03:38:21;;;;;;;9.20;8.20;;;5.30;94.60;;;;;;5121485;28;20749;-46
2022/11/06 03:40:50;;;;;;;11.33;8.10;;;5.30;94.60;;;;;;5119849;28;20862;-45
2022/11/06 03:43:19;;;;;;;8.10;7.30;;;5.30;94.60;;;;;;5119316;28;20512;-44
2022/11/06 03:45:45;;;;;;;8.63;7.83;;;5.30;94.60;;;;;;5101390;28;20832;-45
2022/11/06 03:48:23;;;;;;;7.63;6.80;;;5.30;94.60;;;;;;5101523;28;20873;-48
2022/11/06 03:51:08;;;;;;;8.87;8.00;;;5.30;94.90;;;;;;5101436;28;20783;-46
2022/11/06 03:53:40;;;;;;;9.00;7.57;;;5.30;94.60;;;;;;5120590;28;20854;-44
2022/11/06 03:56:34;;;;;;;7.97;7.17;;;5.30;94.60;;;;;;5102892;28;20422;-45
2022/11/06 03:59:02;;;;;;;8.43;7.53;;;5.30;94.50;;;;;;5120505;28;20889;-44
2022/11/06 04:01:33;;;;;;;9.07;8.10;;;5.30;94.50;;;;;;5120371;28;20424;-46
2022/11/06 04:04:03;;;;;;;8.37;7.20;;;5.20;94.50;;;;;;5102328;28;20882;-44
2022/11/06 04:06:30;;;;;;;9.57;8.27;;;5.20;94.50;;;;;;5102634;28;20417;-46
2022/11/06 04:14:32;;;;;;;8.77;7.63;;;5.20;94.50;;;;;;5104364;28;20412;-46
2022/11/06 04:17:00;;;;;;;8.53;7.10;;;5.20;94.50;;;;;;5102360;28;20418;-44
2022/11/06 04:19:26;;;;;;;8.17;7.37;;;5.20;94.50;;;;;;5101714;28;20620;-43
2022/11/06 04:22:19;;;;;;;7.67;6.97;;;5.20;94.50;;;;;;5119995;28;20419;-46
2022/11/06 04:28:07;;;;;;;7.97;7.13;;;5.20;94.50;;;;;;5102572;28;20401;-44
2022/11/06 04:31:00;;;;;;;8.27;7.33;;;5.20;94.50;;;;;;5119444;28;21026;-46
2022/11/06 04:33:31;;;;;;;8.60;7.80;;;5.10;94.40;;;;;;5119678;28;20414;-46
2022/11/06 04:36:00;;;;;;;8.60;6.73;;;5.10;94.50;;;;;;5120046;28;20429;-46
2022/11/06 04:38:28;;;;;;;7.87;7.07;;;5.10;94.50;;;;;;5119160;28;20417;-46
2022/11/06 04:41:12;;;;;;;7.73;6.97;;;5.10;94.50;;;;;;5119616;28;20410;-45
2022/11/06 04:43:40;;;;;;;9.00;7.70;;;5.10;94.50;;;;;;5120021;28;20453;-45
2022/11/06 04:46:09;;;;;;;8.63;7.73;;;5.10;94.50;;;;;;5107823;28;20427;-45
2022/11/06 04:48:36;;;;;;;9.40;8.20;;;5.10;94.40;;;;;;5098945;28;20524;-44
2022/11/06 04:51:05;;;;;;;7.93;7.13;;;5.10;94.40;;;;;;5081588;28;20419;-47
2022/11/06 04:53:32;;;;;;;9.00;7.77;;;5.00;94.30;;;;;;5081592;28;20436;-47
2022/11/06 04:56:09;;;;;;;7.83;6.93;;;5.00;94.30;;;;;;5082006;28;20450;-47
2022/11/06 04:58:35;;;;;;;8.93;7.47;;;5.00;94.30;;;;;;5081377;28;20469;-45
2022/11/06 05:01:01;;;;;;;8.40;7.50;;;5.00;94.30;;;;;;5081313;28;20427;-46
2022/11/06 05:03:26;;;;;;;7.80;7.00;;;4.90;94.30;;;;;;5098950;28;20405;-45
2022/11/06 05:05:52;;;;;;;8.30;7.50;;;4.90;94.30;;;;;;5099628;28;20169;-46
2022/11/06 05:08:19;;;;;;;7.60;6.80;;;4.90;94.30;;;;;;5098889;28;20169;-45
2022/11/06 05:10:46;;;;;;;7.23;6.53;;;4.90;94.30;;;;;;5098931;28;20473;-44
2022/11/06 05:13:12;;;;;;;8.70;7.90;;;4.80;94.20;;;;;;5098679;28;20763;-44
2022/11/06 05:15:37;;;;;;;9.13;8.00;;;4.80;94.10;;;;;;5098865;28;20423;-44
2022/11/06 05:18:03;;;;;;;8.40;7.60;;;4.80;94.10;;;;;;5098972;28;20901;-42
2022/11/06 05:20:29;;;;;;;7.17;6.30;;;4.80;94.10;;;;;;5099215;28;20187;-43
2022/11/06 05:22:59;;;;;;;8.33;7.43;;;4.80;94.10;;;;;;5098726;28;20521;-47
2022/11/06 05:25:25;;;;;;;7.93;6.97;;;4.70;94.10;;;;;;5099052;28;20478;-45
2022/11/06 05:27:51;;;;;;;8.53;7.73;;;4.70;94.10;;;;;;5098580;28;20417;-45
2022/11/06 05:30:17;;;;;;;8.40;7.60;;;4.70;94.10;;;;;;5098487;28;20423;-46
2022/11/06 05:32:42;;;;;;;8.37;7.57;;;4.70;94.00;;;;;;5098201;28;20180;-49
2022/11/06 05:35:08;;;;;;;8.00;7.20;;;4.60;93.90;;;;;;5097273;28;20241;-47
2022/11/06 05:37:34;;;;;;;8.70;7.80;;;4.60;93.90;;;;;;5098804;28;20172;-44
2022/11/06 05:39:59;;;;;;;7.57;6.43;;;4.60;93.90;;;;;;5098073;28;20181;-46
2022/11/06 05:42:25;;;;;;;10.07;7.50;;;4.60;93.80;;;;;;5098509;28;20381;-45
2022/11/06 05:44:51;;;;;;;8.53;6.90;;;4.60;93.80;;;;;;5097845;28;20573;-46
2022/11/06 05:47:16;;;;;;;6.90;6.20;;;4.50;93.70;;;;;;5096990;28;20531;-44
2022/11/06 05:49:42;;;;;;;8.20;7.40;;;4.50;93.70;;;;;;5096983;28;20168;-47
2022/11/06 05:52:07;;;;;;;8.47;7.60;;;4.50;93.70;;;;;;5084795;28;20223;-44
2022/11/06 05:54:33;;;;;;;7.30;6.60;;;4.50;93.70;;;;;;5089123;28;20180;-45
2022/11/06 05:56:59;;;;;;;8.13;7.33;;;4.40;93.60;;;;;;5095331;28;20308;-44
2022/11/06 05:59:24;;;;;;;7.63;6.93;;;4.40;93.60;;;;;;5097712;28;20573;-45
2022/11/06 06:01:50;;;;;;;8.20;7.30;;;4.40;93.50;;;;;;5097448;28;20192;-43
2022/11/06 06:04:15;;;;;;;9.00;7.47;;;4.40;93.50;;;;;;5080292;28;20212;-45
2022/11/06 06:06:41;;;;;;;8.20;7.40;;;4.40;93.50;;;;;;5098433;28;20176;-42
2022/11/06 06:09:07;;;;;;;7.70;7.00;;;4.30;93.30;;;;;;5098285;28;20203;-44
2022/11/06 06:11:33;;;;;;;8.60;7.77;;;4.30;93.20;;;;;;5097852;28;20429;-41
2022/11/06 06:13:59;;;;;;;8.27;7.47;;;4.20;93.20;;;;;;5098085;28;20411;-44
2022/11/06 06:16:25;;;;;;;10.13;8.07;;;4.10;93.20;;;;;;5097874;28;20176;-47
2022/11/06 06:18:51;;;;;;;7.47;6.77;;;4.00;93.20;;;;;;5097965;28;20488;-45
2022/11/06 06:21:16;;;;;;;9.10;7.67;;;3.90;93.30;;;;;;5098128;28;20176;-45
2022/11/06 06:23:42;;;;;;;7.97;7.17;;;3.90;93.40;;;;;;5097794;28;20200;-43
2022/11/06 06:26:08;;;;;;;8.13;7.30;;;3.80;93.50;;;;;;5097881;28;20200;-43
2022/11/06 06:28:34;;;;;;;8.27;7.53;;;3.80;93.60;;;;;;5097562;28;20176;-45
2022/11/06 06:31:06;;;;;;;8.90;8.03;;;3.80;93.80;;;;;;5097077;28;20521;-43
2022/11/06 06:33:32;;;;;;;8.60;7.80;;;3.80;93.80;;;;;;5096532;28;20462;-44
2022/11/06 06:35:57;;;;;;;8.80;7.87;;;3.80;93.90;;;;;;5096784;28;20503;-43
2022/11/06 06:38:24;;;;;;;8.10;7.30;;;3.90;94.10;;;;;;5096081;28;20419;-44
2022/11/06 06:40:50;;;;;;;10.17;7.87;;;3.90;94.20;;;;;;5097121;28;20559;-45
2022/11/06 06:43:16;;;;;;;8.10;7.40;;;3.90;94.20;;;;;;5096476;28;20504;-46
2022/11/06 06:45:41;;;;;;;8.87;7.87;;;4.00;94.40;;;;;;5094823;28;20200;-44
2022/11/06 06:48:08;;;;;;;8.53;7.73;;;4.10;94.50;;;;;;5061045;28;20177;-44
2022/11/06 06:50:33;;;;;;;7.53;6.80;;;4.20;94.60;;;;;;5098016;28;20455;-45
2022/11/06 06:53:00;;;;;;;8.07;7.27;;;4.40;94.70;;;;;;5099822;28;20443;-44
2022/11/06 06:55:25;;;;;;;9.33;6.73;;;4.70;94.60;;;;;;5080704;28;20403;-45
2022/11/06 06:57:58;;;;;;;8.70;7.80;;;5.00;94.40;;;;;;5079988;28;20857;-43
2022/11/06 07:00:24;;;;;;;8.97;8.07;;;5.20;93.90;;;;;;5063156;28;20170;-44
2022/11/06 07:02:50;;;;;;;8.60;7.80;;;5.50;93.60;;;;;;5080649;28;20455;-45
2022/11/06 07:05:16;;;;;;;7.37;6.07;;;5.80;93.40;;;;;;5081535;28;20479;-46
2022/11/06 07:07:42;;;;;;;7.23;6.53;;;6.10;93.30;;;;;;5063531;28;20818;-45
2022/11/06 07:10:08;;;;;;;7.00;6.30;;;6.50;93.10;;;;;;5072153;28;20189;-44
2022/11/06 07:12:33;;;;;;;7.60;6.90;;;6.90;92.60;;;;;;5078072;28;20185;-45
2022/11/06 07:14:59;;;;;;;6.53;5.93;;;7.20;91.90;;;;;;5079752;28;20180;-47
2022/11/06 07:17:25;;;;;;;7.20;6.40;;;7.40;91.40;;;;;;5080766;28;20228;-44
2022/11/06 07:19:50;;;;;;;7.20;6.50;;;7.60;91.10;;;;;;5062127;28;20464;-45
2022/11/06 07:22:16;;;;;;;6.80;6.20;;;7.60;90.90;;;;;;5079041;28;20469;-45
2022/11/06 07:24:42;;;;;;;7.40;6.70;;;7.80;90.90;;;;;;5079464;28;20500;-47
2022/11/06 07:27:07;;;;;;;6.73;6.03;;;7.90;90.80;;;;;;5078817;28;20182;-43
2022/11/06 07:29:33;;;;;;;9.30;7.40;;;8.10;90.90;;;;;;5079982;28;20182;-43
2022/11/06 07:31:58;;;;;;;7.47;6.77;;;8.40;90.80;;;;;;5079841;28;20192;-44
2022/11/06 07:34:24;;;;;;;7.07;6.40;;;8.70;90.60;;;;;;5079867;28;20189;-43
2022/11/06 07:36:50;;;;;;;7.73;6.30;;;9.10;90.30;;;;;;5080246;28;20188;-43
2022/11/06 07:39:15;;;;;;;8.00;7.20;;;9.50;90.00;;;;;;5079804;28;20474;-44
2022/11/06 07:41:41;;;;;;;8.00;6.77;;;9.90;89.40;;;;;;5080275;28;20439;-46
2022/11/06 07:44:06;;;;;;;7.90;6.30;;;10.30;86.80;;;;;;5042948;28;20442;-44
2022/11/06 07:46:32;;;;;;;7.23;6.53;;;10.70;85.40;;;;;;5076042;28;20180;-44
2022/11/06 07:48:58;;;;;;;6.57;5.87;;;11.00;84.20;;;;;;5077503;28;20173;-44
2022/11/06 07:51:23;;;;;;;6.50;5.90;;;11.50;83.20;;;;;;5077825;28;20185;-44
2022/11/06 07:53:49;;;;;;;7.00;6.30;;;12.00;82.40;;;;;;5078050;28;20587;-44
2022/11/06 07:56:15;;;;;;;7.30;6.60;;;12.50;81.00;;;;;;5077205;28;20441;-46
2022/11/06 07:58:40;;;;;;;7.37;5.90;;;13.00;79.20;;;;;;5059784;28;20229;-46
2022/11/06 08:01:13;;;;;;;6.63;6.03;;;13.50;77.60;;;;;;5079150;28;20473;-42
2022/11/06 08:03:39;;;;;;;7.17;6.57;;;13.90;75.30;;;;;;5080032;28;20193;-44
2022/11/06 08:06:04;;;;;;;7.40;6.60;;;14.30;72.80;;;;;;5079467;28;20440;-42
2022/11/06 08:08:30;;;;;;;6.50;6.00;;;14.80;70.70;;;;;;5078751;28;20190;-46
2022/11/06 08:11:04;;;;;;;6.00;5.50;;;15.20;69.20;;;;;;5078568;28;20182;-42
2022/11/06 08:13:32;;;;;;;6.33;5.83;;;15.60;67.20;;;;;;5078264;28;20180;-44
2022/11/06 08:16:01;;;;;;;6.87;6.33;;;15.80;66.10;;;;;;5078382;28;20440;-43
2022/11/06 08:18:27;;;;;;;7.03;6.37;;;16.00;65.00;;;;;;5078886;28;20416;-43
2022/11/06 08:20:52;;;;;;;6.90;6.30;;;16.40;62.60;;;;;;5078980;28;20427;-42
2022/11/06 08:23:18;;;;;;;5.47;5.07;;;16.60;61.50;;;;;;5079713;28;20200;-43
2022/11/06 08:25:44;;;;;;;6.50;5.90;;;17.10;60.80;;;;;;5079089;28;20283;-45
2022/11/06 08:28:09;;;;;;;6.17;5.67;;;17.90;59.90;;;;;;5078936;28;20246;-46
2022/11/06 08:30:35;;;;;;;5.30;4.90;;;18.80;59.20;;;;;;5078755;28;20189;-46
2022/11/06 08:33:04;;;;;;;5.33;4.83;;;19.60;57.60;;;;;;5076987;28;20195;-43
2022/11/06 08:35:30;;;;;;;4.50;4.10;;;20.30;56.30;;;;;;5075722;28;20190;-46
2022/11/06 08:37:56;;;;;;;5.73;5.23;;;20.90;54.70;;;;;;5061587;28;20475;-43
2022/11/06 08:40:21;;;;;;;5.03;4.63;;;21.60;52.70;;;;;;5057419;28;20240;-44
2022/11/06 08:42:48;;;;;;;6.63;6.13;;;22.20;51.10;;;;;;5076052;28;20192;-44
2022/11/06 08:45:13;;;;;;;5.20;4.80;;;22.80;49.90;;;;;;5075723;28;20220;-44
2022/11/06 08:47:39;;;;;;;5.40;4.90;;;23.20;48.70;;;;;;5074599;28;20425;-43
2022/11/06 08:50:05;;;;;;;5.03;4.63;;;23.90;48.00;;;;;;5057803;28;20177;-44
2022/11/06 08:52:31;;;;;;;5.30;4.80;;;24.60;47.00;;;;;;5074276;28;20207;-43
2022/11/06 08:54:56;;;;;;;5.20;4.80;;;25.20;45.80;;;;;;5074673;28;20474;-47
2022/11/06 08:57:22;;;;;;;4.60;4.30;;;25.80;44.70;;;;;;5074892;28;20239;-44
2022/11/06 08:59:48;;;;;;;5.33;4.90;;;26.40;43.40;;;;;;5075280;28;20185;-44
2022/11/06 09:02:13;;;;;;;4.33;4.03;;;26.70;41.90;;;;;;5058275;28;20518;-47
2022/11/06 09:04:39;;;;;;;5.30;4.90;;;26.90;41.90;;;;;;5076837;28;20265;-46
2022/11/06 09:07:05;;;;;;;5.57;5.07;;;27.50;40.90;;;;;;5077250;28;20274;-43
2022/11/06 09:09:31;;;;;;;5.10;4.70;;;28.00;40.30;;;;;;5058513;28;20450;-44
2022/11/06 09:11:58;;;;;;;5.27;4.77;;;28.50;39.70;;;;;;5076492;28;20451;-44
2022/11/06 09:14:24;;;;;;;5.10;4.70;;;28.30;39.10;;;;;;5088120;28;20176;-48
2022/11/06 09:16:50;;;;;;;4.77;4.43;;;28.50;39.30;;;;;;5095276;28;20400;-44
2022/11/06 09:19:15;;;;;;;4.40;4.00;;;28.80;38.70;;;;;;5084525;28;20278;-43
2022/11/06 09:21:41;;;;;;;4.37;4.07;;;29.00;38.30;;;;;;5077968;28;20530;-44
2022/11/06 09:24:07;;;;;;;4.63;4.23;;;29.20;38.00;;;;;;5078357;28;20205;-46
2022/11/06 09:26:32;;;;;;;5.10;4.70;;;29.20;37.20;;;;;;5078356;28;20232;-43
2022/11/06 09:28:58;;;;;;;4.07;3.77;;;28.90;36.90;;;;;;5078074;28;20427;-44
2022/11/06 09:31:24;;;;;;;4.20;3.80;;;29.10;37.50;;;;;;5086655;28;20612;-46
2022/11/06 09:33:50;;;;;;;3.30;3.00;;;29.50;37.50;;;;;;5098008;28;20185;-43
2022/11/06 09:36:16;;;;;;;3.33;3.00;;;30.00;38.00;;;;;;5090981;28;20263;-44
2022/11/06 09:38:42;;;;;;;3.13;2.83;;;30.40;38.30;;;;;;5077125;28;20428;-43
2022/11/06 09:41:21;;;;;;;3.73;3.33;;;30.80;38.20;;;;;;5083125;28;20499;-45
2022/11/06 09:43:57;;;;;;;3.20;2.90;;;31.10;37.70;;;;;;5092728;28;20760;-43
2022/11/06 09:46:26;;;;;;;3.97;3.57;;;31.60;37.30;;;;;;5097391;28;20400;-43
2022/11/06 09:48:59;;;;;;;3.63;3.33;;;32.00;36.40;;;;;;5079887;28;20415;-44
2022/11/06 09:52:04;;;;;;;3.80;3.50;;;32.30;35.90;;;;;;5079523;28;20504;-41
2022/11/06 09:54:41;;;;;;;3.90;3.50;;;32.70;35.20;;;;;;5097314;28;20389;-41
2022/11/06 09:57:15;;;;;;;3.50;3.20;;;33.10;34.50;;;;;;5078209;28;20727;-45
2022/11/06 09:59:41;;;;;;;3.87;3.57;;;33.10;34.00;;;;;;5096565;28;20572;-45
2022/11/06 10:02:30;;;;;;;3.37;3.10;;;33.10;33.70;;;;;;5079588;28;20792;-45
2022/11/06 10:05:04;;;;;;;3.30;2.70;;;33.20;33.60;;;;;;5079267;28;20218;-42
2022/11/06 10:07:39;;;;;;;3.47;3.20;;;33.50;34.00;;;;;;5094124;28;20377;-41
2022/11/06 10:10:16;;;;;;;3.50;3.20;;;33.50;32.80;;;;;;5078136;28;20416;-44
2022/11/06 10:12:45;;;;;;;3.30;2.97;;;32.80;32.80;;;;;;5096833;28;20420;-42
2022/11/06 10:15:29;;;;;;;3.03;2.83;;;32.20;32.50;;;;;;5097672;28;20444;-45
2022/11/06 10:18:14;;;;;;;3.40;2.93;;;31.80;32.70;;;;;;5078425;28;20426;-43
2022/11/06 10:20:39;;;;;;;2.80;2.60;;;31.40;33.10;;;;;;5096176;28;20398;-41
2022/11/06 10:23:19;;;;;;;2.80;2.60;;;31.40;33.40;;;;;;5094516;28;20445;-41
2022/11/06 10:26:02;;;;;;;2.43;2.13;;;31.50;32.80;;;;;;5094341;28;20204;-43
2022/11/06 10:28:55;;;;;;;3.07;2.87;;;31.40;33.00;;;;;;5096395;28;20391;-43
2022/11/06 10:31:55;;;;;;;4.43;4.03;;;31.20;33.10;;;;;;5095561;28;20420;-41
2022/11/06 10:34:35;;;;;;;3.80;3.50;;;31.40;32.60;;;;;;5077403;28;20434;-43
2022/11/06 10:37:11;;;;;;;2.90;2.70;;;31.50;32.70;;;;;;5078083;28;20693;-42
2022/11/06 10:39:37;;;;;;;2.93;2.73;;;31.80;33.40;;;;;;5077440;28;20404;-41
2022/11/06 10:42:12;;;;;;;3.50;3.20;;;32.40;33.00;;;;;;5078995;28;20401;-42
2022/11/06 10:44:43;;;;;;;3.40;3.20;;;32.60;32.20;;;;;;5097359;28;20212;-42
2022/11/06 10:47:18;;;;;;;3.80;3.27;;;32.70;31.90;;;;;;5097062;28;20421;-43
2022/11/06 10:49:48;;;;;;;3.10;2.90;;;32.90;31.40;;;;;;5095976;28;20388;-42
2022/11/06 10:52:26;;;;;;;2.20;2.00;;;32.40;31.30;;;;;;5096102;28;20416;-44
2022/11/06 10:55:29;;;;;;;2.67;2.40;;;31.90;31.50;;;;;;5094783;28;20694;-47
2022/11/06 10:57:58;;;;;;;2.63;2.43;;;31.30;31.70;;;;;;5092433;28;20469;-43
2022/11/06 11:00:24;;;;;;;2.50;2.17;;;31.00;31.70;;;;;;5076441;28;20435;-48
2022/11/06 11:03:01;;;;;;;3.50;2.87;;;30.60;32.10;;;;;;5073619;28;20395;-43
2022/11/06 11:05:37;;;;;;;4.13;2.20;;;30.20;32.90;;;;;;5079574;28;20541;-44
2022/11/06 11:08:03;;;;;;;2.53;2.33;;;29.70;33.40;;;;;;5082119;28;20431;-44
2022/11/06 11:10:35;;;;;;;3.00;2.73;;;29.70;32.70;;;;;;5094310;28;20505;-44
2022/11/06 11:13:03;;;;;;;2.57;2.37;;;29.80;32.90;;;;;;5094731;28;20627;-44
2022/11/06 11:15:41;;;;;;;3.37;3.03;;;29.80;32.30;;;;;;5058629;28;20833;-43
2022/11/06 11:18:22;;;;;;;2.37;2.17;;;29.80;32.20;;;;;;5057236;28;20833;-46
2022/11/06 11:20:49;;;;;;;2.60;2.40;;;30.30;32.30;;;;;;5073338;28;20824;-45
2022/11/06 11:23:21;;;;;;;2.57;2.37;;;30.60;31.70;;;;;;5073588;28;20485;-45
2022/11/06 11:25:51;;;;;;;2.10;2.00;;;31.10;31.50;;;;;;5073384;28;20471;-43
2022/11/06 11:28:31;;;;;;;2.30;2.10;;;31.50;31.20;;;;;;5056880;28;20462;-43
2022/11/06 11:31:06;;;;;;;2.27;2.00;;;32.40;30.40;;;;;;5058006;28;21062;-42
2022/11/06 11:33:33;;;;;;;2.13;1.93;;;32.90;30.30;;;;;;5057757;28;20434;-45
2022/11/06 11:35:58;;;;;;;2.50;2.23;;;33.40;29.90;;;;;;5059224;28;20404;-45
2022/11/06 11:38:24;;;;;;;2.33;2.13;;;33.70;29.90;;;;;;5080308;28;20526;-42
2022/11/06 11:40:51;;;;;;;2.63;2.43;;;33.80;29.80;;;;;;5079798;28;20207;-41
2022/11/06 11:43:24;;;;;;;2.13;1.93;;;34.10;30.00;;;;;;5076026;28;20463;-41
2022/11/06 11:46:08;;;;;;;2.20;2.00;;;34.40;29.40;;;;;;5100208;28;20476;-45
2022/11/06 11:48:41;;;;;;;2.40;2.20;;;34.60;29.40;;;;;;5099343;28;20422;-43
2022/11/06 11:51:43;;;;;;;1.70;1.43;;;34.60;29.10;;;;;;5099095;28;20423;-43
2022/11/06 11:54:12;;;;;;;2.83;2.57;;;35.00;29.20;;;;;;5082233;28;20519;-43
2022/11/06 11:56:50;;;;;;;2.13;1.97;;;35.70;28.20;;;;;;5099753;28;20492;-43
2022/11/06 11:59:28;;;;;;;2.50;2.30;;;35.90;28.00;;;;;;5100129;28;20387;-43
2022/11/06 12:01:57;;;;;;;2.00;1.80;;;36.10;27.80;;;;;;5081530;28;20436;-44
2022/11/06 12:04:25;;;;;;;2.67;2.47;;;36.00;27.80;;;;;;5080663;28;21098;-42
2022/11/06 12:07:03;;;;;;;3.10;1.93;;;35.80;27.70;;;;;;5098560;28;20422;-42
2022/11/06 12:09:32;;;;;;;2.10;1.90;;;35.60;28.20;;;;;;5063422;28;20829;-46
2022/11/06 12:12:00;;;;;;;2.40;2.20;;;35.90;28.00;;;;;;5098966;28;20415;-42
2022/11/06 12:14:29;;;;;;;2.20;2.00;;;36.10;28.30;;;;;;5080668;28;20399;-42
2022/11/06 12:17:04;;;;;;;2.43;2.13;;;36.20;28.20;;;;;;5080253;28;20507;-42
2022/11/06 12:19:31;;;;;;;2.63;2.43;;;36.10;28.10;;;;;;5080329;28;20496;-42
2022/11/06 12:22:01;;;;;;;2.50;2.13;;;36.30;27.40;;;;;;5080595;28;20491;-44
2022/11/06 12:24:42;;;;;;;2.20;1.90;;;36.40;27.80;;;;;;5098594;28;20544;-44
2022/11/06 12:27:14;;;;;;;2.70;2.50;;;35.90;28.00;;;;;;5080400;28;20422;-42
2022/11/06 12:29:41;;;;;;;2.27;2.10;;;35.30;28.30;;;;;;5080613;28;20743;-43
2022/11/06 12:32:22;;;;;;;2.00;1.80;;;34.20;28.10;;;;;;5080562;28;20423;-44
2022/11/06 12:35:14;;;;;;;2.50;2.30;;;32.70;29.10;;;;;;5064123;28;20493;-42
2022/11/06 12:37:43;;;;;;;2.30;2.10;;;31.20;30.20;;;;;;5081552;28;20454;-43
2022/11/06 12:40:20;;;;;;;2.60;2.40;;;30.30;31.00;;;;;;5098289;28;20422;-44
2022/11/06 12:43:13;;;;;;;2.40;2.20;;;29.80;31.50;;;;;;5098888;28;20386;-41
2022/11/06 12:45:59;;;;;;;2.03;1.87;;;29.30;31.60;;;;;;5098070;28;20462;-41
2022/11/06 12:48:46;;;;;;;2.40;2.20;;;28.70;32.10;;;;;;5097786;28;20538;-43
2022/11/06 12:51:24;;;;;;;2.57;2.37;;;28.60;32.50;;;;;;5098506;28;20420;-43
2022/11/06 12:54:24;;;;;;;2.00;1.90;;;29.00;32.70;;;;;;5098376;28;20408;-43
2022/11/06 12:57:12;;;;;;;2.40;2.20;;;29.50;32.50;;;;;;5090473;28;20460;-42
2022/11/06 12:59:47;;;;;;;2.00;1.80;;;29.70;31.80;;;;;;5098193;28;20382;-43
2022/11/06 13:03:00;;;;;;;2.10;1.90;;;29.80;31.50;;;;;;5098602;28;20395;-43
2022/11/06 13:05:39;;;;;;;2.20;2.00;;;29.50;30.80;;;;;;5028409;28;20467;-42
2022/11/06 13:08:34;;;;;;;2.10;1.90;;;29.20;30.50;;;;;;5080447;28;20417;-44
2022/11/06 13:11:17;;;;;;;2.13;1.93;;;28.70;31.30;;;;;;5079435;28;20407;-43
2022/11/06 13:14:15;;;;;;;2.10;1.90;;;28.20;32.00;;;;;;5079514;28;20427;-42
2022/11/06 13:17:00;;;;;;;2.30;2.10;;;27.50;32.70;;;;;;5044213;28;20439;-43
2022/11/06 13:19:47;;;;;;;2.23;1.60;;;26.80;33.20;;;;;;5060944;28;20422;-41
2022/11/06 13:22:58;;;;;;;1.70;1.50;;;26.10;34.30;;;;;;5097140;28;20418;-42
2022/11/06 13:25:27;;;;;;;1.67;1.53;;;25.50;35.10;;;;;;5092611;28;20528;-42